Steve Richoux — WDC2820 — position and weather

sailwx.info

Track history (hours):
 
Tides and Currents Weather Stations Pressure Air Temp Water Temp Dewpoint Dewpoint Depression Visibility Wind Speed Wind Dir Waves Ship Positions

Steve Richoux

Owner: Marquette Transportation Company Gulf-Inland, LLC, Jefferson, LA. More information available from US FCC via Universal Licensing System and Coast Guard Vessel Documentation Center.

Last reported at 2018-Feb-19 03:11 UTC. Time now 2018-Feb-19 14:19 UTC.
Position N 29°33' W 090°24'.

Length 21 m; draft 3.4 m.

Type: Tow > 200 m length. MMSI: 366998110.

Date/timePositionNaut miles runAvg speedWind from/ knotsBaromVisibWave heightAir tempDewpointWater temp
2018-Feb-19 03:11N 29°33' W 090°24'2 4.6
2018-Feb-19 02:45N 29°33' W 090°26'1 4.4
2018-Feb-19 02:26N 29°33' W 090°28'2 4.5
2018-Feb-19 01:58N 29°34' W 090°30'2 4.4
2018-Feb-19 01:30N 29°34' W 090°33'2 4.3
2018-Feb-19 01:00N 29°34' W 090°35'2 4.2
2018-Feb-19 00:30N 29°35' W 090°37'1 2.7
2018-Feb-19 00:00N 29°35' W 090°39'2 3.8
2018-Feb-18 23:30N 29°36' W 090°41'2 3.3
2018-Feb-18 23:00N 29°37' W 090°42'1 2.9
2018-Feb-18 22:30N 29°35' W 090°43'1 2.4
2018-Feb-18 22:00N 29°34' W 090°43'1 3.0
2018-Feb-18 21:30N 29°34' W 090°45'1 3.0
2018-Feb-18 21:00N 29°32' W 090°46'2 4.6
2018-Feb-18 20:30N 29°32' W 090°48'3 5.2
2018-Feb-18 20:00N 29°32' W 090°51'3 5.0
2018-Feb-18 19:28N 29°33' W 090°54'57 2.1
2018-Feb-17 15:36N 29°53' W 091°56'0 1.9
2018-Feb-17 15:29N 29°53' W 091°56'0 0.0
2018-Feb-17 15:00N 29°53' W 091°56'2 0.1
2018-Feb-16 22:26N 29°51' W 091°56'54 4.5
2018-Feb-16 10:35N 29°34' W 090°57'1 4.7
2018-Feb-16 10:24N 29°34' W 090°56'2 4.7
2018-Feb-16 10:00N 29°33' W 090°54'2 0.3
2018-Feb-16 04:36N 29°32' W 090°52'1 4.0
2018-Feb-16 04:26N 29°32' W 090°52'1 1.3
2018-Feb-16 03:53N 29°32' W 090°51'0 0.0
2018-Feb-16 03:30N 29°32' W 090°51'1 2.7
2018-Feb-16 03:01N 29°32' W 090°49'3 5.1
2018-Feb-16 02:31N 29°32' W 090°46'2 4.5
2018-Feb-16 02:01N 29°34' W 090°45'2 3.7
2018-Feb-16 01:30N 29°35' W 090°43'2 4.2
2018-Feb-16 01:01N 29°37' W 090°42'0 0.1
2018-Feb-16 00:31N 29°37' W 090°42'0 0.0
2018-Feb-16 00:00N 29°37' W 090°42'2 3.4
2018-Feb-15 23:31N 29°36' W 090°40'2 3.2
2018-Feb-15 23:01N 29°35' W 090°38'0 0.0
2018-Feb-15 22:30N 29°35' W 090°38'1 1.4
2018-Feb-15 22:01N 29°35' W 090°38'0 0.0
2018-Feb-15 21:31N 29°35' W 090°38'0 0.0
2018-Feb-15 21:01N 29°35' W 090°38'1 1.2
2018-Feb-15 20:30N 29°35' W 090°37'0 0.1
2018-Feb-15 20:01N 29°35' W 090°37'0 0.1
2018-Feb-15 19:30N 29°35' W 090°37'0 0.5
2018-Feb-15 19:01N 29°35' W 090°37'2 3.9
2018-Feb-15 18:30N 29°35' W 090°35'3 5.2
2018-Feb-15 17:59N 29°34' W 090°32'3 5.4
2018-Feb-15 17:30N 29°34' W 090°29'3 5.3
2018-Feb-15 17:00N 29°33' W 090°26'  
2018-Feb-13 07:04N 29°33' W 090°26'1 3.8
2018-Feb-13 06:52N 29°33' W 090°27'2 4.2
2018-Feb-13 06:30N 29°34' W 090°29'2 4.1
2018-Feb-13 06:00N 29°34' W 090°31'2 3.9
2018-Feb-13 05:30N 29°34' W 090°33'2 3.9
2018-Feb-13 05:00N 29°35' W 090°35'2 3.5
2018-Feb-13 04:30N 29°35' W 090°37'2 3.7
2018-Feb-13 04:00N 29°36' W 090°39'2 3.4
2018-Feb-13 03:30N 29°36' W 090°41'2 3.0
2018-Feb-13 03:00N 29°37' W 090°42'2 3.1
2018-Feb-13 02:30N 29°35' W 090°43'1 2.8
2018-Feb-13 02:00N 29°34' W 090°44'2 3.8
2018-Feb-13 01:30N 29°33' W 090°45'2 4.1
2018-Feb-13 01:00N 29°32' W 090°48'2 5.0
2018-Feb-13 00:30N 29°32' W 090°51'3 4.6
2018-Feb-12 23:55N 29°33' W 090°54'2 4.9
2018-Feb-12 23:30N 29°34' W 090°56'56 2.8
2018-Feb-12 03:36N 29°53' W 091°56'0 2.5
2018-Feb-12 03:30N 29°53' W 091°56'0 0.2
2018-Feb-12 03:00N 29°53' W 091°56'0 0.2
2018-Feb-12 02:24N 29°53' W 091°56'0 0.1
2018-Feb-12 01:52N 29°53' W 091°56'0 0.0
2018-Feb-12 01:28N 29°53' W 091°56'0 0.1
2018-Feb-12 01:00N 29°53' W 091°56'0 0.2
2018-Feb-12 00:30N 29°53' W 091°56'0 0.2
2018-Feb-11 23:59N 29°53' W 091°56'0 0.0
2018-Feb-11 23:26N 29°53' W 091°56'0 0.1
2018-Feb-11 23:00N 29°53' W 091°56'0 0.0
2018-Feb-11 22:26N 29°53' W 091°56'0 0.3
2018-Feb-11 21:54N 29°53' W 091°56'0 0.3
2018-Feb-11 21:23N 29°53' W 091°56'0 0.0
2018-Feb-11 20:42N 29°53' W 091°56'0 1.7
2018-Feb-11 20:28N 29°53' W 091°55'0 0.4
2018-Feb-11 19:22N 29°53' W 091°56'0 0.0
2018-Feb-11 18:11N 29°53' W 091°56'1 3.4
2018-Feb-11 18:00N 29°53' W 091°55'1 0.0
2018-Feb-11 03:22N 29°53' W 091°56'0 0.1
2018-Feb-11 02:06N 29°53' W 091°56'0 0.9
2018-Feb-11 01:59N 29°53' W 091°56'2 3.0
2018-Feb-11 01:16N 29°51' W 091°56'54 2.0
2018-Feb-09 22:37N 29°34' W 090°57'  
Track history (hours):
 
Tides and Currents Weather Stations Pressure Air Temp Water Temp Dewpoint Dewpoint Depression Visibility Wind Speed Wind Dir Waves Ship Positions

Steve Richoux

Owner: Marquette Transportation Company Gulf-Inland, LLC, Jefferson, LA. More information available from US FCC via Universal Licensing System and Coast Guard Vessel Documentation Center.

Last reported at 2018-Feb-19 03:11 UTC. Time now 2018-Feb-19 14:19 UTC.
Position N 29°33' W 090°24'.

Length 21 m; draft 3.4 m.

Type: Tow > 200 m length. MMSI: 366998110.

Date/timePositionNaut miles runAvg speedWind from/ knotsBaromVisibWave heightAir tempDewpointWater temp
2018-Feb-19 03:11N 29°33' W 090°24'2 4.6
2018-Feb-19 02:45N 29°33' W 090°26'1 4.4
2018-Feb-19 02:26N 29°33' W 090°28'2 4.5
2018-Feb-19 01:58N 29°34' W 090°30'2 4.4
2018-Feb-19 01:30N 29°34' W 090°33'2 4.3
2018-Feb-19 01:00N 29°34' W 090°35'2 4.2
2018-Feb-19 00:30N 29°35' W 090°37'1 2.7
2018-Feb-19 00:00N 29°35' W 090°39'2 3.8
2018-Feb-18 23:30N 29°36' W 090°41'2 3.3
2018-Feb-18 23:00N 29°37' W 090°42'1 2.9
2018-Feb-18 22:30N 29°35' W 090°43'1 2.4
2018-Feb-18 22:00N 29°34' W 090°43'1 3.0
2018-Feb-18 21:30N 29°34' W 090°45'1 3.0
2018-Feb-18 21:00N 29°32' W 090°46'2 4.6
2018-Feb-18 20:30N 29°32' W 090°48'3 5.2
2018-Feb-18 20:00N 29°32' W 090°51'3 5.0
2018-Feb-18 19:28N 29°33' W 090°54'57 2.1
2018-Feb-17 15:36N 29°53' W 091°56'0 1.9
2018-Feb-17 15:29N 29°53' W 091°56'0 0.0
2018-Feb-17 15:00N 29°53' W 091°56'2 0.1
2018-Feb-16 22:26N 29°51' W 091°56'54 4.5
2018-Feb-16 10:35N 29°34' W 090°57'1 4.7
2018-Feb-16 10:24N 29°34' W 090°56'2 4.7
2018-Feb-16 10:00N 29°33' W 090°54'2 0.3
2018-Feb-16 04:36N 29°32' W 090°52'1 4.0
2018-Feb-16 04:26N 29°32' W 090°52'1 1.3
2018-Feb-16 03:53N 29°32' W 090°51'0 0.0
2018-Feb-16 03:30N 29°32' W 090°51'1 2.7
2018-Feb-16 03:01N 29°32' W 090°49'3 5.1
2018-Feb-16 02:31N 29°32' W 090°46'2 4.5
2018-Feb-16 02:01N 29°34' W 090°45'2 3.7
2018-Feb-16 01:30N 29°35' W 090°43'2 4.2
2018-Feb-16 01:01N 29°37' W 090°42'0 0.1
2018-Feb-16 00:31N 29°37' W 090°42'0 0.0
2018-Feb-16 00:00N 29°37' W 090°42'2 3.4
2018-Feb-15 23:31N 29°36' W 090°40'2 3.2
2018-Feb-15 23:01N 29°35' W 090°38'0 0.0
2018-Feb-15 22:30N 29°35' W 090°38'1 1.4
2018-Feb-15 22:01N 29°35' W 090°38'0 0.0
2018-Feb-15 21:31N 29°35' W 090°38'0 0.0
2018-Feb-15 21:01N 29°35' W 090°38'1 1.2
2018-Feb-15 20:30N 29°35' W 090°37'0 0.1
2018-Feb-15 20:01N 29°35' W 090°37'0 0.1
2018-Feb-15 19:30N 29°35' W 090°37'0 0.5
2018-Feb-15 19:01N 29°35' W 090°37'2 3.9
2018-Feb-15 18:30N 29°35' W 090°35'3 5.2
2018-Feb-15 17:59N 29°34' W 090°32'3 5.4
2018-Feb-15 17:30N 29°34' W 090°29'3 5.3
2018-Feb-15 17:00N 29°33' W 090°26'  
2018-Feb-13 07:04N 29°33' W 090°26'1 3.8
2018-Feb-13 06:52N 29°33' W 090°27'2 4.2
2018-Feb-13 06:30N 29°34' W 090°29'2 4.1
2018-Feb-13 06:00N 29°34' W 090°31'2 3.9
2018-Feb-13 05:30N 29°34' W 090°33'2 3.9
2018-Feb-13 05:00N 29°35' W 090°35'2 3.5
2018-Feb-13 04:30N 29°35' W 090°37'2 3.7
2018-Feb-13 04:00N 29°36' W 090°39'2 3.4
2018-Feb-13 03:30N 29°36' W 090°41'2 3.0
2018-Feb-13 03:00N 29°37' W 090°42'2 3.1
2018-Feb-13 02:30N 29°35' W 090°43'1 2.8
2018-Feb-13 02:00N 29°34' W 090°44'2 3.8
2018-Feb-13 01:30N 29°33' W 090°45'2 4.1
2018-Feb-13 01:00N 29°32' W 090°48'2 5.0
2018-Feb-13 00:30N 29°32' W 090°51'3 4.6
2018-Feb-12 23:55N 29°33' W 090°54'2 4.9
2018-Feb-12 23:30N 29°34' W 090°56'56 2.8
2018-Feb-12 03:36N 29°53' W 091°56'0 2.5
2018-Feb-12 03:30N 29°53' W 091°56'0 0.2
2018-Feb-12 03:00N 29°53' W 091°56'0 0.2
2018-Feb-12 02:24N 29°53' W 091°56'0 0.1
2018-Feb-12 01:52N 29°53' W 091°56'0 0.0
2018-Feb-12 01:28N 29°53' W 091°56'0 0.1
2018-Feb-12 01:00N 29°53' W 091°56'0 0.2
2018-Feb-12 00:30N 29°53' W 091°56'0 0.2
2018-Feb-11 23:59N 29°53' W 091°56'0 0.0
2018-Feb-11 23:26N 29°53' W 091°56'0 0.1
2018-Feb-11 23:00N 29°53' W 091°56'0 0.0
2018-Feb-11 22:26N 29°53' W 091°56'0 0.3
2018-Feb-11 21:54N 29°53' W 091°56'0 0.3
2018-Feb-11 21:23N 29°53' W 091°56'0 0.0
2018-Feb-11 20:42N 29°53' W 091°56'0 1.7
2018-Feb-11 20:28N 29°53' W 091°55'0 0.4
2018-Feb-11 19:22N 29°53' W 091°56'0 0.0
2018-Feb-11 18:11N 29°53' W 091°56'1 3.4
2018-Feb-11 18:00N 29°53' W 091°55'1 0.0
2018-Feb-11 03:22N 29°53' W 091°56'0 0.1
2018-Feb-11 02:06N 29°53' W 091°56'0 0.9
2018-Feb-11 01:59N 29°53' W 091°56'2 3.0
2018-Feb-11 01:16N 29°51' W 091°56'54 2.0
2018-Feb-09 22:37N 29°34' W 090°57'  

Dump ship's entire track history